sensor_id;sensor_type;location;lat;lon;timestamp;pressure;altitude;pressure_sealevel;temperature;humidity
7309;BME280;3695;53.330;9.876;2023-04-09T00:01:12;105135.09;;;7.32;100.00
7309;BME280;3695;53.330;9.876;2023-04-09T00:03:40;105117.94;;;7.33;100.00
7309;BME280;3695;53.330;9.876;2023-04-09T00:06:06;105114.09;;;7.37;100.00
7309;BME280;3695;53.330;9.876;2023-04-09T00:08:33;105072.69;;;7.22;100.00
7309;BME280;3695;53.330;9.876;2023-04-09T00:10:59;105084.00;;;7.29;100.00
7309;BME280;3695;53.330;9.876;2023-04-09T00:13:26;105025.94;;;7.22;100.00
7309;BME280;3695;53.330;9.876;2023-04-09T00:15:52;105013.63;;;7.32;100.00
7309;BME280;3695;53.330;9.876;2023-04-09T00:18:19;104999.19;;;7.33;100.00
7309;BME280;3695;53.330;9.876;2023-04-09T00:20:46;104986.75;;;7.31;100.00
7309;BME280;3695;53.330;9.876;2023-04-09T00:23:13;105022.50;;;7.34;100.00
7309;BME280;3695;53.330;9.876;2023-04-09T00:25:39;105007.28;;;7.33;100.00
7309;BME280;3695;53.330;9.876;2023-04-09T00:28:06;104993.66;;;7.20;100.00
7309;BME280;3695;53.330;9.876;2023-04-09T00:30:33;105018.41;;;7.13;100.00
7309;BME280;3695;53.330;9.876;2023-04-09T00:32:59;105059.47;;;7.18;100.00
7309;BME280;3695;53.330;9.876;2023-04-09T00:35:25;105064.88;;;7.18;100.00
7309;BME280;3695;53.330;9.876;2023-04-09T00:37:53;105105.59;;;7.29;100.00
7309;BME280;3695;53.330;9.876;2023-04-09T00:40:20;105041.88;;;7.26;100.00
7309;BME280;3695;53.330;9.876;2023-04-09T00:42:46;104977.19;;;7.25;100.00
7309;BME280;3695;53.330;9.876;2023-04-09T00:45:13;104921.28;;;7.27;100.00
7309;BME280;3695;53.330;9.876;2023-04-09T00:47:39;104869.44;;;7.22;100.00
7309;BME280;3695;53.330;9.876;2023-04-09T00:50:08;104864.59;;;7.27;100.00
7309;BME280;3695;53.330;9.876;2023-04-09T00:52:35;104842.34;;;7.23;100.00
7309;BME280;3695;53.330;9.876;2023-04-09T00:55:04;104812.38;;;7.28;100.00
7309;BME280;3695;53.330;9.876;2023-04-09T00:57:31;104782.56;;;7.30;100.00
7309;BME280;3695;53.330;9.876;2023-04-09T00:59:57;104764.19;;;7.22;100.00
7309;BME280;3695;53.330;9.876;2023-04-09T01:02:24;104764.94;;;7.24;100.00
7309;BME280;3695;53.330;9.876;2023-04-09T01:04:51;104748.19;;;7.19;100.00
7309;BME280;3695;53.330;9.876;2023-04-09T01:07:24;104771.50;;;7.20;100.00
7309;BME280;3695;53.330;9.876;2023-04-09T01:10:14;104747.91;;;7.09;100.00
7309;BME280;3695;53.330;9.876;2023-04-09T01:12:48;104746.47;;;7.18;100.00
7309;BME280;3695;53.330;9.876;2023-04-09T01:15:22;104688.38;;;7.12;100.00
7309;BME280;3695;53.330;9.876;2023-04-09T01:17:55;104631.41;;;7.17;100.00
7309;BME280;3695;53.330;9.876;2023-04-09T01:20:29;104584.00;;;7.13;100.00
7309;BME280;3695;53.330;9.876;2023-04-09T01:23:02;104554.34;;;7.13;100.00
7309;BME280;3695;53.330;9.876;2023-04-09T01:25:43;104543.53;;;7.13;100.00
7309;BME280;3695;53.330;9.876;2023-04-09T01:28:16;104504.03;;;7.12;100.00
7309;BME280;3695;53.330;9.876;2023-04-09T01:30:47;104523.22;;;7.07;100.00
7309;BME280;3695;53.330;9.876;2023-04-09T01:33:15;104476.63;;;7.18;100.00
7309;BME280;3695;53.330;9.876;2023-04-09T01:35:43;104436.06;;;7.19;100.00
7309;BME280;3695;53.330;9.876;2023-04-09T01:38:13;104382.97;;;7.20;100.00
7309;BME280;3695;53.330;9.876;2023-04-09T01:40:39;104348.84;;;7.19;100.00
7309;BME280;3695;53.330;9.876;2023-04-09T01:43:07;104310.53;;;7.26;100.00
7309;BME280;3695;53.330;9.876;2023-04-09T01:45:35;104263.03;;;7.24;100.00
7309;BME280;3695;53.330;9.876;2023-04-09T01:48:03;104246.09;;;7.22;100.00
7309;BME280;3695;53.330;9.876;2023-04-09T01:50:31;104254.75;;;7.14;100.00
7309;BME280;3695;53.330;9.876;2023-04-09T01:52:58;104243.34;;;7.11;100.00
7309;BME280;3695;53.330;9.876;2023-04-09T01:55:25;104279.78;;;7.04;100.00
7309;BME280;3695;53.330;9.876;2023-04-09T01:57:51;104358.38;;;7.12;100.00
7309;BME280;3695;53.330;9.876;2023-04-09T02:00:18;104325.78;;;7.15;100.00
7309;BME280;3695;53.330;9.876;2023-04-09T02:02:53;104325.78;;;7.15;100.00
7309;BME280;3695;53.330;9.876;2023-04-09T02:05:22;104320.16;;;7.18;100.00
7309;BME280;3695;53.330;9.876;2023-04-09T02:07:53;104287.44;;;7.22;100.00
7309;BME280;3695;53.330;9.876;2023-04-09T02:10:21;104222.28;;;7.16;100.00
7309;BME280;3695;53.330;9.876;2023-04-09T02:12:50;104183.31;;;7.20;100.00
7309;BME280;3695;53.330;9.876;2023-04-09T02:15:18;104143.06;;;7.17;100.00
7309;BME280;3695;53.330;9.876;2023-04-09T02:17:46;104127.63;;;7.19;100.00
7309;BME280;3695;53.330;9.876;2023-04-09T02:20:15;104135.38;;;7.23;100.00
7309;BME280;3695;53.330;9.876;2023-04-09T02:22:42;104093.41;;;7.19;100.00
7309;BME280;3695;53.330;9.876;2023-04-09T02:25:09;104091.47;;;7.21;100.00
7309;BME280;3695;53.330;9.876;2023-04-09T02:27:35;104101.09;;;7.13;100.00
7309;BME280;3695;53.330;9.876;2023-04-09T02:30:02;104142.84;;;7.20;100.00
7309;BME280;3695;53.330;9.876;2023-04-09T02:32:29;104115.75;;;7.21;100.00
7309;BME280;3695;53.330;9.876;2023-04-09T02:34:57;104111.56;;;7.17;100.00
7309;BME280;3695;53.330;9.876;2023-04-09T02:37:23;104114.25;;;7.17;100.00
7309;BME280;3695;53.330;9.876;2023-04-09T02:39:49;104114.25;;;7.17;100.00
7309;BME280;3695;53.330;9.876;2023-04-09T02:42:16;104130.56;;;7.16;100.00
7309;BME280;3695;53.330;9.876;2023-04-09T02:44:42;104124.41;;;7.14;100.00
7309;BME280;3695;53.330;9.876;2023-04-09T02:47:09;104102.28;;;7.09;100.00
7309;BME280;3695;53.330;9.876;2023-04-09T02:49:35;104132.63;;;7.12;100.00
7309;BME280;3695;53.330;9.876;2023-04-09T02:52:03;104115.75;;;7.09;100.00
7309;BME280;3695;53.330;9.876;2023-04-09T02:54:30;104192.16;;;7.22;100.00
7309;BME280;3695;53.330;9.876;2023-04-09T02:56:56;104155.06;;;7.13;100.00
7309;BME280;3695;53.330;9.876;2023-04-09T02:59:23;104155.06;;;7.13;100.00
7309;BME280;3695;53.330;9.876;2023-04-09T03:01:49;104157.66;;;7.02;100.00
7309;BME280;3695;53.330;9.876;2023-04-09T03:04:15;104194.78;;;7.11;100.00
7309;BME280;3695;53.330;9.876;2023-04-09T03:06:42;104170.56;;;7.09;100.00
7309;BME280;3695;53.330;9.876;2023-04-09T03:09:10;104172.97;;;7.14;100.00
7309;BME280;3695;53.330;9.876;2023-04-09T03:11:36;104169.28;;;7.15;100.00
7309;BME280;3695;53.330;9.876;2023-04-09T03:14:03;104130.47;;;7.05;100.00
7309;BME280;3695;53.330;9.876;2023-04-09T03:16:29;104130.03;;;7.11;100.00
7309;BME280;3695;53.330;9.876;2023-04-09T03:18:56;104131.09;;;7.08;100.00
7309;BME280;3695;53.330;9.876;2023-04-09T03:21:22;104105.66;;;7.00;100.00
7309;BME280;3695;53.330;9.876;2023-04-09T03:23:48;104153.34;;;6.99;100.00
7309;BME280;3695;53.330;9.876;2023-04-09T03:26:16;104145.34;;;7.10;100.00
7309;BME280;3695;53.330;9.876;2023-04-09T03:28:43;104120.09;;;7.11;100.00
7309;BME280;3695;53.330;9.876;2023-04-09T03:31:09;104092.47;;;7.08;100.00
7309;BME280;3695;53.330;9.876;2023-04-09T03:33:35;104058.38;;;7.07;100.00
7309;BME280;3695;53.330;9.876;2023-04-09T03:36:02;104052.47;;;7.02;100.00
7309;BME280;3695;53.330;9.876;2023-04-09T03:38:29;104120.97;;;7.12;100.00
7309;BME280;3695;53.330;9.876;2023-04-09T03:40:55;104051.72;;;7.00;100.00
7309;BME280;3695;53.330;9.876;2023-04-09T03:43:23;104134.34;;;7.01;100.00
7309;BME280;3695;53.330;9.876;2023-04-09T03:45:49;104067.91;;;7.00;100.00
7309;BME280;3695;53.330;9.876;2023-04-09T03:48:16;104083.56;;;6.94;100.00
7309;BME280;3695;53.330;9.876;2023-04-09T03:50:43;104046.50;;;6.85;100.00
7309;BME280;3695;53.330;9.876;2023-04-09T03:53:09;104036.28;;;6.78;100.00
7309;BME280;3695;53.330;9.876;2023-04-09T03:55:36;104092.56;;;6.82;100.00
7309;BME280;3695;53.330;9.876;2023-04-09T03:58:03;104078.19;;;6.94;100.00
7309;BME280;3695;53.330;9.876;2023-04-09T04:00:31;104034.97;;;6.83;100.00
7309;BME280;3695;53.330;9.876;2023-04-09T04:02:57;104021.38;;;6.85;100.00
7309;BME280;3695;53.330;9.876;2023-04-09T04:05:23;104012.88;;;6.78;100.00
7309;BME280;3695;53.330;9.876;2023-04-09T04:07:50;104049.88;;;6.76;100.00
7309;BME280;3695;53.330;9.876;2023-04-09T04:10:17;104105.94;;;6.84;100.00
7309;BME280;3695;53.330;9.876;2023-04-09T04:12:44;104126.78;;;7.06;100.00
7309;BME280;3695;53.330;9.876;2023-04-09T04:15:10;104024.34;;;6.93;100.00
7309;BME280;3695;53.330;9.876;2023-04-09T04:17:39;104062.91;;;7.06;100.00
7309;BME280;3695;53.330;9.876;2023-04-09T04:20:06;104018.88;;;7.06;100.00
7309;BME280;3695;53.330;9.876;2023-04-09T04:22:33;104006.38;;;7.05;100.00
7309;BME280;3695;53.330;9.876;2023-04-09T04:24:59;104011.53;;;7.08;100.00
7309;BME280;3695;53.330;9.876;2023-04-09T04:27:26;103961.50;;;7.04;100.00
7309;BME280;3695;53.330;9.876;2023-04-09T04:29:53;103974.25;;;7.02;100.00
7309;BME280;3695;53.330;9.876;2023-04-09T04:32:19;103952.69;;;7.02;100.00
7309;BME280;3695;53.330;9.876;2023-04-09T04:34:48;103895.78;;;6.93;100.00
7309;BME280;3695;53.330;9.876;2023-04-09T04:37:15;103960.00;;;6.88;100.00
7309;BME280;3695;53.330;9.876;2023-04-09T04:39:41;103991.53;;;6.99;100.00
7309;BME280;3695;53.330;9.876;2023-04-09T04:42:08;103964.91;;;6.94;100.00
7309;BME280;3695;53.330;9.876;2023-04-09T04:44:34;103963.22;;;7.05;100.00
7309;BME280;3695;53.330;9.876;2023-04-09T04:47:01;103972.06;;;7.07;100.00
7309;BME280;3695;53.330;9.876;2023-04-09T04:49:27;103934.53;;;7.04;100.00
7309;BME280;3695;53.330;9.876;2023-04-09T04:51:55;103996.63;;;7.15;100.00
7309;BME280;3695;53.330;9.876;2023-04-09T04:54:22;103955.19;;;7.16;100.00
7309;BME280;3695;53.330;9.876;2023-04-09T04:56:48;103891.88;;;7.09;100.00
7309;BME280;3695;53.330;9.876;2023-04-09T04:59:15;103966.97;;;7.15;100.00
7309;BME280;3695;53.330;9.876;2023-04-09T05:01:41;103924.78;;;7.14;100.00
7309;BME280;3695;53.330;9.876;2023-04-09T05:04:07;103954.22;;;7.17;100.00
7309;BME280;3695;53.330;9.876;2023-04-09T05:06:34;103933.13;;;7.11;100.00
7309;BME280;3695;53.330;9.876;2023-04-09T05:09:02;103945.25;;;7.16;100.00
7309;BME280;3695;53.330;9.876;2023-04-09T05:11:28;103935.13;;;6.96;100.00
7309;BME280;3695;53.330;9.876;2023-04-09T05:13:55;103962.34;;;6.93;100.00
7309;BME280;3695;53.330;9.876;2023-04-09T05:16:22;104049.84;;;6.89;100.00
7309;BME280;3695;53.330;9.876;2023-04-09T05:18:49;104093.13;;;7.11;100.00
7309;BME280;3695;53.330;9.876;2023-04-09T05:21:15;104070.88;;;7.08;100.00
7309;BME280;3695;53.330;9.876;2023-04-09T05:23:42;104074.56;;;7.07;100.00
7309;BME280;3695;53.330;9.876;2023-04-09T05:26:10;104112.88;;;7.12;100.00
7309;BME280;3695;53.330;9.876;2023-04-09T05:28:36;104099.38;;;7.12;100.00
7309;BME280;3695;53.330;9.876;2023-04-09T05:31:03;104115.34;;;7.15;100.00
7309;BME280;3695;53.330;9.876;2023-04-09T05:33:31;104111.91;;;7.13;100.00
7309;BME280;3695;53.330;9.876;2023-04-09T05:36:02;104179.84;;;7.18;100.00
7309;BME280;3695;53.330;9.876;2023-04-09T05:38:29;104168.22;;;7.17;100.00
7309;BME280;3695;53.330;9.876;2023-04-09T05:40:55;104169.94;;;7.06;100.00
7309;BME280;3695;53.330;9.876;2023-04-09T05:43:23;104255.16;;;7.08;100.00
7309;BME280;3695;53.330;9.876;2023-04-09T05:45:49;104277.84;;;7.06;100.00
7309;BME280;3695;53.330;9.876;2023-04-09T05:48:16;104347.88;;;7.07;100.00
7309;BME280;3695;53.330;9.876;2023-04-09T05:50:48;104378.53;;;7.19;100.00
7309;BME280;3695;53.330;9.876;2023-04-09T05:53:14;104397.97;;;7.24;100.00
7309;BME280;3695;53.330;9.876;2023-04-09T05:55:41;104376.38;;;7.24;100.00
7309;BME280;3695;53.330;9.876;2023-04-09T05:58:07;104365.69;;;7.10;100.00
7309;BME280;3695;53.330;9.876;2023-04-09T06:00:35;104427.09;;;7.19;100.00
7309;BME280;3695;53.330;9.876;2023-04-09T06:03:01;104420.19;;;7.28;100.00
7309;BME280;3695;53.330;9.876;2023-04-09T06:05:28;104380.78;;;7.38;100.00
7309;BME280;3695;53.330;9.876;2023-04-09T06:07:54;104352.72;;;7.40;100.00
7309;BME280;3695;53.330;9.876;2023-04-09T06:10:22;104306.38;;;7.46;100.00
7309;BME280;3695;53.330;9.876;2023-04-09T06:12:49;104308.25;;;7.33;100.00
7309;BME280;3695;53.330;9.876;2023-04-09T06:15:15;104296.25;;;7.37;100.00
7309;BME280;3695;53.330;9.876;2023-04-09T06:17:44;104349.88;;;7.54;100.00
7309;BME280;3695;53.330;9.876;2023-04-09T06:20:10;104297.59;;;7.55;100.00
7309;BME280;3695;53.330;9.876;2023-04-09T06:22:37;104283.69;;;7.62;100.00
7309;BME280;3695;53.330;9.876;2023-04-09T06:25:04;104227.22;;;7.58;100.00
7309;BME280;3695;53.330;9.876;2023-04-09T06:27:31;104189.84;;;7.52;100.00
7309;BME280;3695;53.330;9.876;2023-04-09T06:29:57;104146.25;;;7.46;100.00
7309;BME280;3695;53.330;9.876;2023-04-09T06:32:24;104148.72;;;7.49;100.00
7309;BME280;3695;53.330;9.876;2023-04-09T06:34:51;104150.44;;;7.50;100.00
7309;BME280;3695;53.330;9.876;2023-04-09T06:37:18;104118.19;;;7.48;100.00
7309;BME280;3695;53.330;9.876;2023-04-09T06:39:44;104150.69;;;7.71;100.00
7309;BME280;3695;53.330;9.876;2023-04-09T06:42:11;104089.22;;;7.50;100.00
7309;BME280;3695;53.330;9.876;2023-04-09T06:44:37;104096.13;;;7.54;100.00
7309;BME280;3695;53.330;9.876;2023-04-09T06:47:04;104073.91;;;7.51;100.00
7309;BME280;3695;53.330;9.876;2023-04-09T06:49:32;104071.31;;;7.49;100.00
7309;BME280;3695;53.330;9.876;2023-04-09T06:51:59;104034.63;;;7.47;100.00
7309;BME280;3695;53.330;9.876;2023-04-09T06:54:26;104053.88;;;7.42;100.00
7309;BME280;3695;53.330;9.876;2023-04-09T06:56:52;104080.38;;;7.48;100.00
7309;BME280;3695;53.330;9.876;2023-04-09T06:59:19;104104.03;;;7.69;100.00
7309;BME280;3695;53.330;9.876;2023-04-09T07:01:45;104125.69;;;7.91;100.00
7309;BME280;3695;53.330;9.876;2023-04-09T07:04:12;104013.63;;;8.08;100.00
7309;BME280;3695;53.330;9.876;2023-04-09T07:06:39;103854.84;;;8.00;100.00
7309;BME280;3695;53.330;9.876;2023-04-09T07:09:07;103986.47;;;8.20;100.00
7309;BME280;3695;53.330;9.876;2023-04-09T07:11:33;103895.53;;;8.42;100.00
7309;BME280;3695;53.330;9.876;2023-04-09T07:13:59;103798.97;;;8.44;100.00
7309;BME280;3695;53.330;9.876;2023-04-09T07:16:26;103724.06;;;8.35;100.00
7309;BME280;3695;53.330;9.876;2023-04-09T07:18:52;103623.47;;;8.31;100.00
7309;BME280;3695;53.330;9.876;2023-04-09T07:21:19;103589.38;;;8.09;100.00
7309;BME280;3695;53.330;9.876;2023-04-09T07:23:45;103637.59;;;8.35;100.00
7309;BME280;3695;53.330;9.876;2023-04-09T07:26:13;103567.41;;;8.03;100.00
7309;BME280;3695;53.330;9.876;2023-04-09T07:28:39;103489.56;;;8.17;100.00
7309;BME280;3695;53.330;9.876;2023-04-09T07:31:06;103503.09;;;8.17;100.00
7309;BME280;3695;53.330;9.876;2023-04-09T07:33:32;103453.63;;;8.27;100.00
7309;BME280;3695;53.330;9.876;2023-04-09T07:35:59;103427.72;;;8.14;100.00
7309;BME280;3695;53.330;9.876;2023-04-09T07:38:27;103460.03;;;8.26;100.00
7309;BME280;3695;53.330;9.876;2023-04-09T07:40:54;103354.25;;;8.40;100.00
7309;BME280;3695;53.330;9.876;2023-04-09T07:43:22;103324.63;;;8.29;100.00
7309;BME280;3695;53.330;9.876;2023-04-09T07:45:48;103470.91;;;8.45;100.00
7309;BME280;3695;53.330;9.876;2023-04-09T07:48:15;103322.69;;;8.60;100.00
7309;BME280;3695;53.330;9.876;2023-04-09T07:50:41;103399.81;;;8.73;100.00
7309;BME280;3695;53.330;9.876;2023-04-09T07:53:09;103415.19;;;8.82;100.00
7309;BME280;3695;53.330;9.876;2023-04-09T07:55:35;103308.59;;;8.75;100.00
7309;BME280;3695;53.330;9.876;2023-04-09T07:58:02;103314.16;;;8.74;100.00
7309;BME280;3695;53.330;9.876;2023-04-09T08:00:30;103232.47;;;8.70;100.00
7309;BME280;3695;53.330;9.876;2023-04-09T08:02:57;103331.63;;;8.79;100.00
7309;BME280;3695;53.330;9.876;2023-04-09T08:05:23;103259.91;;;8.75;100.00
7309;BME280;3695;53.330;9.876;2023-04-09T08:07:50;103177.25;;;8.73;100.00
7309;BME280;3695;53.330;9.876;2023-04-09T08:10:17;103213.06;;;8.84;100.00
7309;BME280;3695;53.330;9.876;2023-04-09T08:12:43;103273.25;;;8.87;100.00
7309;BME280;3695;53.330;9.876;2023-04-09T08:15:10;103252.34;;;8.89;100.00
7309;BME280;3695;53.330;9.876;2023-04-09T08:17:38;103304.69;;;9.07;100.00
7309;BME280;3695;53.330;9.876;2023-04-09T08:20:05;103179.00;;;8.92;100.00
7309;BME280;3695;53.330;9.876;2023-04-09T08:22:32;103082.16;;;8.77;100.00
7309;BME280;3695;53.330;9.876;2023-04-09T08:24:59;103289.06;;;9.01;100.00
7309;BME280;3695;53.330;9.876;2023-04-09T08:27:26;103323.63;;;9.07;100.00
7309;BME280;3695;53.330;9.876;2023-04-09T08:29:52;103111.69;;;8.89;100.00
7309;BME280;3695;53.330;9.876;2023-04-09T08:32:19;103268.25;;;9.01;100.00
7309;BME280;3695;53.330;9.876;2023-04-09T08:34:46;103166.00;;;9.05;100.00
7309;BME280;3695;53.330;9.876;2023-04-09T08:37:13;103230.34;;;9.11;100.00
7309;BME280;3695;53.330;9.876;2023-04-09T08:39:40;103298.50;;;9.24;100.00
7309;BME280;3695;53.330;9.876;2023-04-09T08:42:07;103243.38;;;9.25;100.00
7309;BME280;3695;53.330;9.876;2023-04-09T08:44:36;103302.50;;;9.20;100.00
7309;BME280;3695;53.330;9.876;2023-04-09T08:47:07;103411.97;;;9.55;100.00
7309;BME280;3695;53.330;9.876;2023-04-09T08:49:35;103260.28;;;9.64;100.00
7309;BME280;3695;53.330;9.876;2023-04-09T08:52:03;103232.50;;;9.80;100.00
7309;BME280;3695;53.330;9.876;2023-04-09T08:54:30;103112.13;;;9.57;100.00
7309;BME280;3695;53.330;9.876;2023-04-09T08:56:57;103192.13;;;9.69;100.00
7309;BME280;3695;53.330;9.876;2023-04-09T08:59:23;103195.09;;;9.93;100.00
7309;BME280;3695;53.330;9.876;2023-04-09T09:02:05;103074.97;;;9.67;100.00
7309;BME280;3695;53.330;9.876;2023-04-09T09:04:43;102941.06;;;9.35;100.00
7309;BME280;3695;53.330;9.876;2023-04-09T09:07:12;103083.09;;;9.31;100.00
7309;BME280;3695;53.330;9.876;2023-04-09T09:09:52;103102.19;;;9.12;100.00
7309;BME280;3695;53.330;9.876;2023-04-09T09:12:30;103302.81;;;9.44;100.00
7309;BME280;3695;53.330;9.876;2023-04-09T09:14:57;103387.75;;;9.81;100.00
7309;BME280;3695;53.330;9.876;2023-04-09T09:17:24;103232.22;;;9.83;100.00
7309;BME280;3695;53.330;9.876;2023-04-09T09:19:50;103412.31;;;10.34;100.00
7309;BME280;3695;53.330;9.876;2023-04-09T09:22:18;103240.22;;;10.20;100.00
7309;BME280;3695;53.330;9.876;2023-04-09T09:24:45;103100.66;;;9.98;100.00
7309;BME280;3695;53.330;9.876;2023-04-09T09:27:29;103212.09;;;10.03;100.00
7309;BME280;3695;53.330;9.876;2023-04-09T09:29:56;102912.94;;;9.54;100.00
7309;BME280;3695;53.330;9.876;2023-04-09T09:32:22;103249.94;;;9.77;100.00
7309;BME280;3695;53.330;9.876;2023-04-09T09:34:57;103042.53;;;9.75;100.00
7309;BME280;3695;53.330;9.876;2023-04-09T09:37:27;103251.94;;;9.75;100.00
7309;BME280;3695;53.330;9.876;2023-04-09T09:39:54;102856.84;;;9.38;100.00
7309;BME280;3695;53.330;9.876;2023-04-09T09:42:21;103164.88;;;9.53;100.00
7309;BME280;3695;53.330;9.876;2023-04-09T09:44:48;103290.72;;;9.76;100.00
7309;BME280;3695;53.330;9.876;2023-04-09T09:47:17;102962.94;;;9.68;100.00
7309;BME280;3695;53.330;9.876;2023-04-09T09:49:43;103253.63;;;9.76;100.00
7309;BME280;3695;53.330;9.876;2023-04-09T09:52:10;103325.53;;;10.16;100.00
7309;BME280;3695;53.330;9.876;2023-04-09T09:54:40;103215.41;;;10.51;100.00
7309;BME280;3695;53.330;9.876;2023-04-09T09:57:08;103222.53;;;10.78;100.00
7309;BME280;3695;53.330;9.876;2023-04-09T09:59:40;103168.31;;;10.86;100.00
7309;BME280;3695;53.330;9.876;2023-04-09T10:02:13;103204.28;;;10.88;100.00
7309;BME280;3695;53.330;9.876;2023-04-09T10:04:42;103190.16;;;11.10;100.00
7309;BME280;3695;53.330;9.876;2023-04-09T10:07:09;102861.59;;;10.95;100.00
7309;BME280;3695;53.330;9.876;2023-04-09T10:09:36;103159.66;;;11.24;100.00
7309;BME280;3695;53.330;9.876;2023-04-09T10:12:07;103214.06;;;11.41;100.00
7309;BME280;3695;53.330;9.876;2023-04-09T10:14:35;102970.66;;;11.07;100.00
7309;BME280;3695;53.330;9.876;2023-04-09T10:17:03;103090.06;;;11.07;100.00
7309;BME280;3695;53.330;9.876;2023-04-09T10:19:30;103130.31;;;11.20;100.00
7309;BME280;3695;53.330;9.876;2023-04-09T10:22:04;103099.75;;;11.18;100.00
7309;BME280;3695;53.330;9.876;2023-04-09T10:24:32;102813.94;;;10.77;100.00
7309;BME280;3695;53.330;9.876;2023-04-09T10:27:09;103106.00;;;11.02;100.00
7309;BME280;3695;53.330;9.876;2023-04-09T10:29:42;103012.03;;;11.01;100.00
7309;BME280;3695;53.330;9.876;2023-04-09T10:32:10;103016.38;;;10.86;100.00
7309;BME280;3695;53.330;9.876;2023-04-09T10:34:38;102876.31;;;10.77;100.00
7309;BME280;3695;53.330;9.876;2023-04-09T10:37:06;103189.88;;;10.61;100.00
7309;BME280;3695;53.330;9.876;2023-04-09T10:39:38;103301.03;;;11.31;100.00
7309;BME280;3695;53.330;9.876;2023-04-09T10:42:10;102909.59;;;10.95;100.00
7309;BME280;3695;53.330;9.876;2023-04-09T10:44:39;103002.00;;;10.93;100.00
7309;BME280;3695;53.330;9.876;2023-04-09T10:47:07;102957.38;;;10.80;100.00
7309;BME280;3695;53.330;9.876;2023-04-09T10:49:35;103253.28;;;11.46;100.00
7309;BME280;3695;53.330;9.876;2023-04-09T10:52:04;102646.72;;;11.00;100.00
7309;BME280;3695;53.330;9.876;2023-04-09T10:54:41;103250.75;;;11.53;100.00
7309;BME280;3695;53.330;9.876;2023-04-09T10:57:15;103181.50;;;11.73;100.00
7309;BME280;3695;53.330;9.876;2023-04-09T10:59:43;102895.50;;;11.40;100.00
7309;BME280;3695;53.330;9.876;2023-04-09T11:02:26;103190.00;;;11.62;100.00
7309;BME280;3695;53.330;9.876;2023-04-09T11:05:04;103158.50;;;11.85;100.00
7309;BME280;3695;53.330;9.876;2023-04-09T11:07:34;103100.22;;;12.04;100.00
7309;BME280;3695;53.330;9.876;2023-04-09T11:10:02;103040.91;;;12.16;100.00
7309;BME280;3695;53.330;9.876;2023-04-09T11:12:30;102964.09;;;12.14;100.00
7309;BME280;3695;53.330;9.876;2023-04-09T11:14:56;102582.78;;;12.05;100.00
7309;BME280;3695;53.330;9.876;2023-04-09T11:17:22;102564.19;;;11.94;100.00
7309;BME280;3695;53.330;9.876;2023-04-09T11:19:49;102034.09;;;12.17;100.00
7309;BME280;3695;53.330;9.876;2023-04-09T11:22:15;101991.25;;;12.19;100.00
7309;BME280;3695;53.330;9.876;2023-04-09T11:24:43;102182.69;;;12.31;100.00
7309;BME280;3695;53.330;9.876;2023-04-09T11:27:10;102216.47;;;12.43;100.00
7309;BME280;3695;53.330;9.876;2023-04-09T11:29:38;102458.59;;;12.06;100.00
7309;BME280;3695;53.330;9.876;2023-04-09T11:32:06;102489.38;;;11.46;100.00
7309;BME280;3695;53.330;9.876;2023-04-09T11:34:33;102518.88;;;12.39;100.00
7309;BME280;3695;53.330;9.876;2023-04-09T11:36:59;102775.78;;;12.66;100.00
7309;BME280;3695;53.330;9.876;2023-04-09T11:39:31;102822.91;;;12.66;100.00
7309;BME280;3695;53.330;9.876;2023-04-09T11:41:57;102954.75;;;12.86;100.00
7309;BME280;3695;53.330;9.876;2023-04-09T11:44:24;103121.31;;;12.74;100.00
7309;BME280;3695;53.330;9.876;2023-04-09T11:46:51;103187.28;;;12.84;100.00
7309;BME280;3695;53.330;9.876;2023-04-09T11:49:18;103288.28;;;13.05;100.00
7309;BME280;3695;53.330;9.876;2023-04-09T11:51:45;103353.31;;;13.25;100.00
7309;BME280;3695;53.330;9.876;2023-04-09T11:54:11;103456.28;;;13.21;100.00
7309;BME280;3695;53.330;9.876;2023-04-09T11:56:38;103386.28;;;12.73;100.00
7309;BME280;3695;53.330;9.876;2023-04-09T11:59:04;103405.16;;;12.58;100.00
7309;BME280;3695;53.330;9.876;2023-04-09T12:01:31;103434.44;;;12.72;100.00
7309;BME280;3695;53.330;9.876;2023-04-09T12:03:59;103335.44;;;12.49;100.00
7309;BME280;3695;53.330;9.876;2023-04-09T12:06:26;103288.81;;;12.19;100.00
7309;BME280;3695;53.330;9.876;2023-04-09T12:08:55;103346.47;;;12.31;100.00
7309;BME280;3695;53.330;9.876;2023-04-09T12:11:26;103401.41;;;12.59;100.00
7309;BME280;3695;53.330;9.876;2023-04-09T12:13:58;103400.91;;;12.72;100.00
7309;BME280;3695;53.330;9.876;2023-04-09T12:16:25;103464.59;;;12.87;100.00
7309;BME280;3695;53.330;9.876;2023-04-09T12:18:51;103503.06;;;13.16;100.00
7309;BME280;3695;53.330;9.876;2023-04-09T12:21:24;103589.63;;;13.88;100.00
7309;BME280;3695;53.330;9.876;2023-04-09T12:23:52;103403.00;;;13.35;100.00
7309;BME280;3695;53.330;9.876;2023-04-09T12:26:18;103447.56;;;13.58;100.00
7309;BME280;3695;53.330;9.876;2023-04-09T12:28:45;103422.50;;;13.63;100.00
7309;BME280;3695;53.330;9.876;2023-04-09T12:31:11;103493.16;;;13.89;100.00
7309;BME280;3695;53.330;9.876;2023-04-09T12:33:38;103369.00;;;13.70;100.00
7309;BME280;3695;53.330;9.876;2023-04-09T12:36:05;103350.44;;;13.73;100.00
7309;BME280;3695;53.330;9.876;2023-04-09T12:38:32;103199.72;;;13.34;100.00
7309;BME280;3695;53.330;9.876;2023-04-09T12:40:59;103121.81;;;13.16;100.00
7309;BME280;3695;53.330;9.876;2023-04-09T12:43:26;103289.53;;;13.50;100.00
7309;BME280;3695;53.330;9.876;2023-04-09T12:45:52;103148.34;;;13.22;100.00
7309;BME280;3695;53.330;9.876;2023-04-09T12:48:19;103353.00;;;13.75;100.00
7309;BME280;3695;53.330;9.876;2023-04-09T12:50:45;103413.19;;;14.04;100.00
7309;BME280;3695;53.330;9.876;2023-04-09T12:53:12;103528.13;;;14.48;100.00
7309;BME280;3695;53.330;9.876;2023-04-09T12:55:40;103343.72;;;14.23;100.00
7309;BME280;3695;53.330;9.876;2023-04-09T12:58:06;103416.53;;;14.54;100.00
7309;BME280;3695;53.330;9.876;2023-04-09T13:00:33;103300.59;;;14.41;100.00
7309;BME280;3695;53.330;9.876;2023-04-09T13:03:00;103245.75;;;14.36;100.00
7309;BME280;3695;53.330;9.876;2023-04-09T13:05:26;103239.38;;;14.44;100.00
7309;BME280;3695;53.330;9.876;2023-04-09T13:07:53;103309.59;;;14.73;100.00
7309;BME280;3695;53.330;9.876;2023-04-09T13:10:19;103248.50;;;14.74;100.00